createdAt,value
2022-11-03T00:01:43.391Z,67.13
2022-11-03T00:04:12.890Z,67.39
2022-11-03T00:06:40.954Z,66.96
2022-11-03T00:09:10.168Z,67.29
2022-11-03T00:11:39.161Z,67.60
2022-11-03T00:14:07.257Z,67.45
2022-11-03T00:16:33.913Z,67.40
2022-11-03T00:19:00.871Z,68.17
2022-11-03T00:21:27.836Z,68.27
2022-11-03T00:23:54.578Z,68.06
2022-11-03T00:26:29.321Z,68.70
2022-11-03T00:29:00.431Z,68.75
2022-11-03T00:31:32.769Z,68.87
2022-11-03T00:34:00.427Z,69.21
2022-11-03T00:36:37.168Z,69.33
2022-11-03T00:39:05.114Z,69.38
2022-11-03T00:41:32.336Z,69.55
2022-11-03T00:43:59.015Z,69.44
2022-11-03T00:46:25.868Z,69.19
2022-11-03T00:48:52.545Z,69.41
2022-11-03T00:51:22.040Z,69.76
2022-11-03T00:53:52.083Z,69.78
2022-11-03T00:56:30.124Z,69.45
2022-11-03T00:58:58.772Z,69.52
2022-11-03T01:01:31.339Z,69.34
2022-11-03T01:04:18.517Z,69.34
2022-11-03T01:06:51.381Z,68.97
2022-11-03T01:09:25.537Z,68.70
2022-11-03T01:12:04.796Z,68.87
2022-11-03T01:14:36.007Z,68.84
2022-11-03T01:17:05.865Z,68.67
2022-11-03T01:19:32.578Z,68.84
2022-11-03T01:21:59.241Z,69.29
2022-11-03T01:24:25.886Z,69.08
2022-11-03T01:26:52.631Z,69.07
2022-11-03T01:29:19.327Z,69.24
2022-11-03T01:31:46.086Z,69.00
2022-11-03T01:34:16.245Z,69.25
2022-11-03T01:36:43.760Z,69.24
2022-11-03T01:39:15.675Z,69.30
2022-11-03T01:41:45.295Z,69.02
2022-11-03T01:44:11.823Z,69.01
2022-11-03T01:47:05.538Z,68.82
2022-11-03T01:49:35.966Z,68.84
2022-11-03T01:52:11.541Z,68.71
2022-11-03T01:54:41.461Z,69.09
2022-11-03T01:57:14.437Z,68.90
2022-11-03T01:59:43.454Z,68.57
2022-11-03T02:02:11.095Z,68.65
2022-11-03T02:04:38.439Z,68.63
2022-11-03T02:07:33.838Z,68.88
2022-11-03T02:10:01.566Z,68.64
2022-11-03T02:12:28.573Z,68.66
2022-11-03T02:15:00.383Z,68.94
2022-11-03T02:17:30.159Z,68.78
2022-11-03T02:20:02.420Z,68.98
2022-11-03T02:22:53.987Z,68.96
2022-11-03T02:25:50.807Z,68.88
2022-11-03T02:28:28.103Z,68.58
2022-11-03T02:31:06.295Z,68.54
2022-11-03T02:33:55.448Z,68.52
2022-11-03T02:36:35.884Z,69.12
2022-11-03T02:39:12.689Z,68.74
2022-11-03T02:41:40.816Z,68.94
2022-11-03T02:44:14.121Z,68.75
2022-11-03T02:46:43.559Z,68.48
2022-11-03T02:49:10.390Z,68.99
2022-11-03T02:51:37.049Z,68.83
2022-11-03T02:54:11.783Z,68.99
2022-11-03T02:56:48.215Z,68.92
2022-11-03T02:59:21.635Z,68.90
2022-11-03T03:02:06.692Z,68.99
2022-11-03T03:04:51.113Z,68.55
2022-11-03T03:07:25.795Z,68.89
2022-11-03T03:10:00.768Z,68.85
2022-11-03T03:12:28.494Z,69.06
2022-11-03T03:14:57.001Z,69.18
2022-11-03T03:17:54.904Z,69.10
2022-11-03T03:20:31.722Z,68.95
2022-11-03T03:23:11.735Z,68.89
2022-11-03T03:26:13.810Z,69.28
2022-11-03T03:28:48.655Z,69.03
2022-11-03T03:31:18.286Z,69.17
2022-11-03T03:33:48.045Z,69.34
2022-11-03T03:36:18.795Z,69.42
2022-11-03T03:38:51.148Z,69.44
2022-11-03T03:41:22.009Z,69.49
2022-11-03T03:43:55.758Z,69.54
2022-11-03T03:46:26.338Z,69.54
2022-11-03T03:48:53.115Z,69.81
2022-11-03T03:51:24.188Z,69.68
2022-11-03T03:53:52.612Z,69.13
2022-11-03T03:56:26.159Z,68.98
2022-11-03T03:58:52.811Z,69.02
2022-11-03T04:01:19.589Z,69.04
2022-11-03T04:03:46.257Z,69.00
2022-11-03T04:06:12.880Z,69.25
2022-11-03T04:08:39.571Z,68.71
2022-11-03T04:11:24.567Z,69.15
2022-11-03T04:14:11.459Z,69.46
2022-11-03T04:16:56.528Z,69.62
2022-11-03T04:19:41.772Z,69.32
2022-11-03T04:22:17.497Z,68.94
2022-11-03T04:24:45.819Z,69.20
2022-11-03T04:27:36.986Z,68.82
2022-11-03T04:30:09.628Z,69.17
2022-11-03T04:32:37.107Z,69.42
2022-11-03T04:35:28.204Z,68.97
2022-11-03T04:37:58.822Z,69.36
2022-11-03T04:40:25.704Z,69.93
2022-11-03T04:42:52.614Z,69.78
2022-11-03T04:45:34.004Z,69.84
2022-11-03T04:48:06.542Z,69.68
2022-11-03T04:50:33.183Z,69.44
2022-11-03T04:53:00.222Z,69.89
2022-11-03T04:55:27.587Z,69.49
2022-11-03T04:58:00.421Z,69.74
2022-11-03T05:00:27.250Z,69.65
2022-11-03T05:02:56.124Z,69.52
2022-11-03T05:05:26.136Z,69.34
2022-11-03T05:07:55.793Z,69.43
2022-11-03T05:10:29.280Z,69.69
2022-11-03T05:12:57.558Z,69.31
2022-11-03T05:15:27.361Z,69.50
2022-11-03T05:17:54.964Z,69.58
2022-11-03T05:20:46.536Z,69.55
2022-11-03T05:23:14.017Z,69.50
2022-11-03T05:25:43.306Z,69.80
2022-11-03T05:28:20.639Z,69.67
2022-11-03T05:30:48.988Z,70.05
2022-11-03T05:33:22.559Z,70.11
2022-11-03T05:35:49.438Z,69.73
2022-11-03T05:38:20.403Z,69.85
2022-11-03T05:40:50.433Z,69.62
2022-11-03T05:43:18.450Z,69.74
2022-11-03T05:45:45.550Z,69.73
2022-11-03T05:48:37.400Z,69.82
2022-11-03T05:51:18.666Z,69.58
2022-11-03T05:53:46.460Z,69.59
2022-11-03T05:56:19.866Z,69.57
2022-11-03T05:58:48.640Z,69.65
2022-11-03T06:01:32.473Z,69.45
2022-11-03T06:04:33.709Z,69.44
2022-11-03T06:07:03.244Z,69.38
2022-11-03T06:09:33.591Z,69.17
2022-11-03T06:12:02.519Z,68.96
2022-11-03T06:14:31.401Z,68.76
2022-11-03T06:17:02.014Z,68.90
2022-11-03T06:19:37.076Z,68.47
2022-11-03T06:22:18.802Z,68.81
2022-11-03T06:24:45.896Z,69.22
2022-11-03T06:27:27.818Z,68.55
2022-11-03T06:30:01.474Z,68.49
2022-11-03T06:32:28.736Z,68.64
2022-11-03T06:34:57.590Z,68.73
2022-11-03T06:37:31.090Z,68.67
2022-11-03T06:40:26.115Z,68.66
2022-11-03T06:42:54.282Z,68.42
2022-11-03T06:45:24.402Z,68.51
2022-11-03T06:47:55.027Z,68.39
2022-11-03T06:50:28.675Z,68.03
2022-11-03T06:52:57.398Z,68.27
2022-11-03T06:55:26.226Z,68.32
2022-11-03T06:58:31.654Z,67.76
2022-11-03T07:01:14.546Z,67.97
2022-11-03T07:03:41.365Z,67.46
2022-11-03T07:06:11.152Z,67.66
2022-11-03T07:08:47.807Z,67.58
2022-11-03T07:11:14.363Z,66.83
2022-11-03T07:13:41.601Z,67.04
2022-11-03T07:16:24.504Z,66.79
2022-11-03T07:18:51.267Z,66.31
2022-11-03T07:21:40.776Z,66.29
2022-11-03T07:24:30.157Z,64.53
2022-11-03T07:27:02.438Z,63.97
2022-11-03T07:29:31.152Z,63.43
2022-11-03T07:31:59.684Z,62.41
2022-11-03T07:34:33.258Z,62.03
2022-11-03T07:37:00.598Z,61.17
2022-11-03T07:39:35.444Z,60.24
2022-11-03T07:42:23.520Z,60.06
2022-11-03T07:44:53.307Z,60.33
2022-11-03T07:47:27.513Z,60.57
2022-11-03T07:49:57.102Z,60.73
2022-11-03T07:52:26.952Z,60.97
2022-11-03T07:54:56.889Z,60.90
2022-11-03T07:57:30.556Z,60.63
2022-11-03T08:00:07.215Z,61.07
2022-11-03T08:02:43.145Z,61.80
2022-11-03T08:05:10.090Z,62.05
2022-11-03T08:07:36.706Z,62.29
2022-11-03T08:10:03.923Z,62.56
2022-11-03T08:12:30.545Z,62.58
2022-11-03T08:14:57.158Z,62.37
2022-11-03T08:17:23.811Z,62.79
2022-11-03T08:19:50.489Z,62.58
2022-11-03T08:22:17.123Z,61.73
2022-11-03T08:24:44.154Z,61.08
2022-11-03T08:27:10.815Z,59.87
2022-11-03T08:29:37.516Z,59.69
2022-11-03T08:32:04.394Z,59.05
2022-11-03T08:34:31.066Z,58.26
2022-11-03T08:36:57.875Z,58.15
2022-11-03T08:39:24.697Z,58.33
2022-11-03T08:41:51.406Z,57.85
2022-11-03T08:44:18.109Z,57.65
2022-11-03T08:46:44.767Z,56.55
2022-11-03T08:49:11.385Z,55.12
2022-11-03T08:51:43.151Z,54.79
2022-11-03T08:54:11.182Z,54.12
2022-11-03T08:56:37.850Z,53.74
2022-11-03T08:59:04.521Z,53.41
2022-11-03T09:01:31.226Z,53.95
2022-11-03T09:03:58.096Z,52.97
2022-11-03T09:06:24.915Z,52.81
2022-11-03T09:11:38.187Z,51.98
2022-11-03T09:14:04.939Z,50.93
2022-11-03T09:16:31.554Z,50.30
2022-11-03T09:18:58.258Z,49.90
2022-11-03T09:21:24.920Z,49.19
2022-11-03T09:23:51.627Z,48.49
2022-11-03T09:26:18.901Z,47.86
2022-11-03T09:28:45.723Z,47.49
2022-11-03T09:31:12.820Z,47.74
2022-11-03T09:33:39.475Z,47.27
2022-11-03T09:36:06.425Z,46.48
2022-11-03T09:38:33.086Z,47.21
2022-11-03T09:41:00.540Z,46.08
2022-11-03T09:43:28.252Z,45.51
2022-11-03T09:45:54.922Z,46.41
2022-11-03T09:48:21.675Z,47.02
2022-11-03T09:50:53.294Z,46.75
2022-11-03T09:53:21.159Z,47.34
2022-11-03T09:55:47.867Z,47.91
2022-11-03T09:58:17.520Z,48.33
2022-11-03T10:00:45.009Z,48.48
2022-11-03T10:03:13.452Z,49.15
2022-11-03T10:05:42.140Z,49.07
2022-11-03T10:08:22.743Z,49.75
2022-11-03T10:10:50.656Z,51.48
2022-11-03T10:13:34.906Z,51.40
2022-11-03T10:16:05.151Z,51.94
2022-11-03T10:18:33.353Z,51.72
2022-11-03T10:21:04.519Z,52.50
2022-11-03T10:23:31.180Z,52.79
2022-11-03T10:26:09.640Z,53.49
2022-11-03T10:28:36.895Z,53.26
2022-11-03T10:31:18.345Z,53.79
2022-11-03T10:33:55.613Z,53.47
2022-11-03T10:36:23.520Z,53.96
2022-11-03T10:38:50.230Z,53.89
2022-11-03T10:41:16.824Z,53.76
2022-11-03T10:43:45.704Z,53.88
2022-11-03T10:46:36.605Z,54.04
2022-11-03T10:51:38.326Z,53.79
2022-11-03T10:54:06.431Z,53.71
2022-11-03T10:56:33.382Z,53.71
2022-11-03T10:59:01.073Z,53.83
2022-11-03T11:01:28.043Z,53.93
2022-11-03T11:03:55.285Z,53.75
2022-11-03T11:06:27.807Z,53.28
2022-11-03T11:09:00.315Z,53.56
2022-11-03T11:11:28.285Z,52.52
2022-11-03T11:14:26.772Z,52.84
2022-11-03T11:16:56.774Z,51.81
2022-11-03T11:19:25.754Z,51.57
2022-11-03T11:21:52.456Z,51.17
2022-11-03T11:24:43.940Z,50.85
2022-11-03T11:27:32.248Z,50.24
2022-11-03T11:30:05.165Z,49.83
2022-11-03T11:32:50.312Z,49.05
2022-11-03T11:35:38.939Z,48.63
2022-11-03T11:38:43.492Z,48.97
2022-11-03T11:41:10.135Z,47.73
2022-11-03T11:43:37.048Z,47.35
2022-11-03T11:46:22.045Z,47.62
2022-11-03T11:48:57.495Z,48.13
2022-11-03T11:51:24.632Z,48.13
2022-11-03T11:54:09.928Z,48.81
2022-11-03T11:56:43.223Z,49.42
2022-11-03T11:59:24.386Z,50.05
2022-11-03T12:01:55.468Z,49.96
2022-11-03T12:04:26.516Z,50.96
2022-11-03T12:06:53.371Z,51.61
2022-11-03T12:09:27.057Z,51.69
2022-11-03T12:11:56.391Z,51.69
2022-11-03T12:14:23.329Z,52.14
2022-11-03T12:16:50.208Z,52.28
2022-11-03T12:19:35.510Z,52.39
2022-11-03T12:22:05.521Z,52.44
2022-11-03T12:24:32.299Z,52.47
2022-11-03T12:27:00.366Z,52.09
2022-11-03T12:29:27.537Z,52.33
2022-11-03T12:31:54.232Z,52.15
2022-11-03T12:34:21.040Z,52.19
2022-11-03T12:36:50.711Z,51.92
2022-11-03T12:39:21.475Z,51.60
2022-11-03T12:41:48.073Z,51.19
2022-11-03T12:44:14.749Z,50.94
2022-11-03T12:46:41.562Z,50.91
2022-11-03T12:49:08.423Z,50.69
2022-11-03T12:51:35.066Z,50.92
2022-11-03T12:54:01.823Z,50.73
2022-11-03T12:56:28.568Z,50.40
2022-11-03T12:58:55.557Z,50.25
2022-11-03T13:01:22.305Z,50.62
2022-11-03T13:03:49.120Z,50.13
2022-11-03T13:06:15.784Z,50.97
2022-11-03T13:08:42.637Z,51.63
2022-11-03T13:11:29.385Z,51.72
2022-11-03T13:13:56.284Z,52.12
2022-11-03T13:16:22.994Z,52.44
2022-11-03T13:18:49.640Z,52.72
2022-11-03T13:21:16.899Z,52.71
2022-11-03T13:23:43.604Z,52.92
2022-11-03T13:26:10.820Z,53.25
2022-11-03T13:28:37.629Z,53.80
2022-11-03T13:31:04.341Z,55.10
2022-11-03T13:33:31.018Z,55.96
2022-11-03T13:35:57.749Z,56.69
2022-11-03T13:38:24.570Z,57.59
2022-11-03T13:41:03.574Z,57.99
2022-11-03T13:43:33.815Z,58.68
2022-11-03T13:46:02.507Z,59.28
2022-11-03T13:51:18.376Z,59.88
2022-11-03T13:56:32.223Z,61.54
2022-11-03T14:01:45.929Z,63.25
2022-11-03T14:06:59.479Z,63.27
2022-11-03T14:09:26.374Z,64.18
2022-11-03T14:12:11.881Z,64.42
2022-11-03T14:14:38.668Z,64.47
2022-11-03T14:17:05.288Z,65.31
2022-11-03T14:19:39.717Z,66.00
2022-11-03T14:22:09.710Z,66.08
2022-11-03T14:24:36.371Z,64.74
2022-11-03T14:27:03.047Z,65.93
2022-11-03T14:29:29.754Z,65.43
2022-11-03T14:31:56.424Z,65.97
2022-11-03T14:34:23.109Z,66.46
2022-11-03T14:36:49.805Z,67.19
2022-11-03T14:39:16.475Z,68.01
2022-11-03T14:42:01.919Z,68.02
2022-11-03T14:44:29.267Z,67.11
2022-11-03T14:46:55.900Z,66.78
2022-11-03T14:49:22.771Z,66.80
2022-11-03T14:51:49.468Z,66.82
2022-11-03T14:54:16.102Z,68.47
2022-11-03T14:56:42.741Z,68.88
2022-11-03T14:59:09.415Z,69.15
2022-11-03T15:01:37.242Z,69.64
2022-11-03T15:04:04.781Z,69.78
2022-11-03T15:06:31.375Z,69.52
2022-11-03T15:08:58.312Z,70.25
2022-11-03T15:11:25.042Z,70.47
2022-11-03T15:13:52.730Z,70.53
2022-11-03T15:16:19.600Z,70.76
2022-11-03T15:18:46.515Z,70.64
2022-11-03T15:21:13.651Z,70.97
2022-11-03T15:26:27.331Z,71.24
2022-11-03T15:28:54.115Z,71.47
2022-11-03T15:31:20.820Z,71.56
2022-11-03T15:33:47.501Z,71.48
2022-11-03T15:36:14.171Z,72.07
2022-11-03T15:38:40.909Z,72.40
2022-11-03T15:41:16.629Z,73.00
2022-11-03T15:43:47.945Z,73.32
2022-11-03T15:46:16.292Z,73.07
2022-11-03T15:48:44.080Z,73.22
2022-11-03T15:51:12.070Z,73.59
2022-11-03T15:53:39.407Z,73.18
2022-11-03T15:56:07.234Z,73.50
2022-11-03T15:58:34.488Z,73.26
2022-11-03T16:01:05.165Z,73.19
2022-11-03T16:03:32.465Z,73.26
2022-11-03T16:05:59.826Z,73.41
2022-11-03T16:08:26.454Z,73.27
2022-11-03T16:10:57.562Z,72.94
2022-11-03T16:13:25.376Z,73.38
2022-11-03T16:15:54.302Z,73.81
2022-11-03T16:18:21.347Z,74.10
2022-11-03T16:20:48.011Z,73.83
2022-11-03T16:23:14.711Z,73.95
2022-11-03T16:25:41.405Z,73.98
2022-11-03T16:28:08.434Z,73.84
2022-11-03T16:30:35.373Z,73.87
2022-11-03T16:33:02.073Z,73.86
2022-11-03T16:35:29.618Z,73.94
2022-11-03T16:37:56.445Z,73.93
2022-11-03T16:40:23.685Z,73.92
2022-11-03T16:42:50.573Z,74.23
2022-11-03T16:45:18.615Z,74.98
2022-11-03T16:47:46.752Z,74.67
2022-11-03T16:50:14.148Z,74.51
2022-11-03T16:52:40.792Z,74.66
2022-11-03T16:55:09.297Z,74.71
2022-11-03T16:57:35.945Z,74.86
2022-11-03T17:00:03.646Z,74.49
2022-11-03T17:02:30.574Z,74.65
2022-11-03T17:04:57.506Z,74.43
2022-11-03T17:07:24.172Z,74.22
2022-11-03T17:09:50.809Z,74.42
2022-11-03T17:12:17.460Z,74.46
2022-11-03T17:14:44.174Z,74.37
2022-11-03T17:17:10.934Z,74.31
2022-11-03T17:19:37.657Z,74.36
2022-11-03T17:22:04.532Z,74.17
2022-11-03T17:24:31.726Z,74.69
2022-11-03T17:27:02.011Z,74.38
2022-11-03T17:29:38.446Z,74.26
2022-11-03T17:32:11.025Z,74.53
2022-11-03T17:34:38.198Z,75.05
2022-11-03T17:37:05.233Z,74.73
2022-11-03T17:39:38.038Z,75.48
2022-11-03T17:42:14.872Z,75.63
2022-11-03T17:44:45.681Z,75.78
2022-11-03T17:47:12.352Z,75.64
2022-11-03T17:49:38.988Z,75.90
2022-11-03T17:52:09.902Z,76.34
2022-11-03T17:54:36.574Z,76.37
2022-11-03T17:57:04.036Z,76.36
2022-11-03T17:59:30.791Z,76.27
2022-11-03T18:01:57.624Z,77.18
2022-11-03T18:04:24.318Z,77.63
2022-11-03T18:06:51.014Z,77.88
2022-11-03T18:09:17.781Z,77.96
2022-11-03T18:12:03.477Z,78.07
2022-11-03T18:14:30.530Z,78.50
2022-11-03T18:16:57.959Z,76.78
2022-11-03T18:19:24.949Z,76.41
2022-11-03T18:21:51.612Z,76.32
2022-11-03T18:24:19.884Z,76.57
2022-11-03T18:26:46.658Z,78.05
2022-11-03T18:29:13.323Z,78.96
2022-11-03T18:31:44.141Z,79.20
2022-11-03T18:34:18.330Z,79.21
2022-11-03T18:36:45.288Z,79.05
2022-11-03T18:39:18.549Z,79.13
2022-11-03T18:41:45.900Z,79.32
2022-11-03T18:44:18.600Z,79.24
2022-11-03T18:46:45.566Z,79.53
2022-11-03T18:49:12.475Z,79.63
2022-11-03T18:51:40.735Z,79.63
2022-11-03T18:54:12.434Z,80.07
2022-11-03T18:56:39.136Z,79.82
2022-11-03T18:59:06.506Z,79.95
2022-11-03T19:01:33.203Z,79.67
2022-11-03T19:03:59.945Z,79.70
2022-11-03T19:06:26.698Z,79.77
2022-11-03T19:08:59.438Z,79.78
2022-11-03T19:11:26.468Z,79.81
2022-11-03T19:13:53.223Z,79.71
2022-11-03T19:16:24.400Z,80.16
2022-11-03T19:18:52.347Z,80.03
2022-11-03T19:21:23.342Z,80.43
2022-11-03T19:23:52.964Z,80.32
2022-11-03T19:26:30.037Z,80.68
2022-11-03T19:29:03.205Z,80.39
2022-11-03T19:31:42.563Z,80.76
2022-11-03T19:34:23.731Z,80.21
2022-11-03T19:36:51.381Z,79.86
2022-11-03T19:39:29.247Z,79.87
2022-11-03T19:42:15.595Z,79.62
2022-11-03T19:44:42.278Z,79.50
2022-11-03T19:47:14.735Z,79.38
2022-11-03T19:49:41.459Z,78.73
2022-11-03T19:52:11.620Z,78.79
2022-11-03T19:54:38.320Z,78.96
2022-11-03T19:57:09.839Z,78.88
2022-11-03T19:59:36.512Z,78.56
2022-11-03T20:02:04.050Z,77.90
2022-11-03T20:04:30.875Z,78.01
2022-11-03T20:06:57.584Z,77.81
2022-11-03T20:12:03.739Z,77.59
2022-11-03T20:14:30.585Z,77.59
2022-11-03T20:16:59.804Z,77.51
2022-11-03T20:19:26.436Z,77.14
2022-11-03T20:21:53.159Z,77.18
2022-11-03T20:24:19.922Z,77.48
2022-11-03T20:26:46.947Z,78.42
2022-11-03T20:29:15.069Z,78.11
2022-11-03T20:31:45.478Z,78.33
2022-11-03T20:34:15.608Z,78.48
2022-11-03T20:36:44.075Z,78.29
2022-11-03T20:39:16.517Z,78.56
2022-11-03T20:41:47.111Z,78.25
2022-11-03T20:44:15.284Z,78.58
2022-11-03T20:46:42.818Z,78.36
2022-11-03T20:49:09.876Z,77.89
2022-11-03T20:51:47.066Z,77.79
2022-11-03T20:54:17.548Z,78.09
2022-11-03T20:56:44.603Z,77.88
2022-11-03T20:59:17.098Z,77.87
2022-11-03T21:01:45.009Z,78.13
2022-11-03T21:04:16.831Z,77.91
2022-11-03T21:06:43.704Z,78.55
2022-11-03T21:09:15.542Z,78.73
2022-11-03T21:11:43.359Z,79.13
2022-11-03T21:14:26.576Z,78.41
2022-11-03T21:17:11.941Z,78.76
2022-11-03T21:19:57.234Z,78.74
2022-11-03T21:22:53.342Z,78.40
2022-11-03T21:25:22.979Z,77.55
2022-11-03T21:27:49.897Z,77.68
2022-11-03T21:30:17.478Z,77.26
2022-11-03T21:32:44.172Z,77.42
2022-11-03T21:35:16.378Z,77.77
2022-11-03T21:37:43.279Z,77.60
2022-11-03T21:40:12.366Z,77.07
2022-11-03T21:42:57.585Z,77.12
2022-11-03T21:45:24.829Z,76.86
2022-11-03T21:48:13.508Z,77.40
2022-11-03T21:50:40.961Z,77.49
2022-11-03T21:53:08.202Z,77.87
2022-11-03T21:55:35.458Z,77.34
2022-11-03T21:58:03.350Z,78.22
2022-11-03T22:00:31.255Z,78.28
2022-11-03T22:02:59.669Z,78.00
2022-11-03T22:05:29.393Z,78.27
2022-11-03T22:07:56.257Z,77.70
2022-11-03T22:10:22.927Z,77.83
2022-11-03T22:12:49.562Z,77.38
2022-11-03T22:15:34.866Z,78.28
2022-11-03T22:18:03.065Z,78.61
2022-11-03T22:20:48.142Z,78.91
2022-11-03T22:23:34.218Z,79.32
2022-11-03T22:26:20.308Z,78.90
2022-11-03T22:29:06.922Z,79.56
2022-11-03T22:31:42.524Z,79.75
2022-11-03T22:34:28.047Z,79.62
2022-11-03T22:36:54.762Z,79.39
2022-11-03T22:39:39.954Z,79.57
2022-11-03T22:42:25.436Z,80.51
2022-11-03T22:45:10.828Z,80.57
2022-11-03T22:47:37.446Z,80.00
2022-11-03T22:50:04.449Z,79.78
2022-11-03T22:52:31.128Z,79.52
2022-11-03T22:54:57.804Z,79.93
2022-11-03T22:57:24.427Z,80.29
2022-11-03T22:59:51.086Z,79.69
2022-11-03T23:02:17.778Z,79.68
2022-11-03T23:04:46.385Z,79.38
2022-11-03T23:07:12.998Z,79.13
2022-11-03T23:09:39.659Z,79.02
2022-11-03T23:12:06.469Z,79.38
2022-11-03T23:14:51.943Z,79.06
2022-11-03T23:17:18.621Z,79.43
2022-11-03T23:20:03.650Z,78.91
2022-11-03T23:22:30.312Z,79.04
2022-11-03T23:24:59.939Z,79.18
2022-11-03T23:27:26.874Z,78.65
2022-11-03T23:29:53.618Z,78.69
2022-11-03T23:32:20.327Z,78.64
2022-11-03T23:34:46.978Z,78.22
2022-11-03T23:37:14.221Z,77.98
2022-11-03T23:39:40.991Z,77.88
2022-11-03T23:42:07.672Z,78.15
2022-11-03T23:44:54.607Z,78.75
2022-11-03T23:47:40.107Z,77.62
2022-11-03T23:50:07.063Z,77.43
2022-11-03T23:52:33.876Z,78.42
2022-11-03T23:55:00.507Z,78.32
2022-11-03T23:57:45.595Z,77.99
